EGPN

Dundee Airport

Dundee, United Kingdom
METAR EGPN 211450Z 08006KT 9999 SCT048 15/08 Q1016
Observed Flight Rules
Apr-21 @ 14:50 UTC (8 hours ago) Visual Flight Rules
Wind Visibility Clouds
80° at 6 knots 10,000+ meters
  • Scattered at 4,800' AGL
Temperatures Readings
Current 15°C / 59°F
Dewpoint 8°C / 46°F
Humidity 63%
Altimeter 30" Hg
Pressure 1016 hPa
Elevation 4
METAR EGPN 211450Z 08006KT 9999 SCT048 15/08 Q1016
Observed Flight Rules
Apr-21 @ 14:50 UTC
(8 hours ago)
VFR
Wind Visibility
80° at 6 knots 10,000+ meters
Clouds
  • Scattered at 4,800' AGL
Temperature Dewpoint
15°C / 59°F 8°C / 46°F
Humidity Altimeter Pressure
63% 30" Hg 1016 hPa